Time;durP1;ratioP1;P1;durP2;ratioP2;P2;SDS_P1;SDS_P2;PMS_P1;PMS_P2;Temp;Humidity;BMP_temperature;BMP_pressure;BME280_temperature;BME280_humidity;BME280_pressure;Samples;Min_cycle;Max_cycle;Signal;HPM_P1;HPM_P2
2023/06/15 00:02:10;;;;;;;;;;;;;;;13.82;99.98;99169.60;107939;1307;22427;-43
2023/06/15 00:04:36;;;;;;;;;;;;;;;13.81;99.94;99170.73;107953;1307;22542;-43
2023/06/15 00:07:01;;;;;;;;;;;;;;;13.79;100.00;99168.89;107935;1307;23153;-43
2023/06/15 00:09:26;;;;;;;;;;;;;;;13.80;100.00;99170.09;107931;1307;22437;-45
2023/06/15 00:11:52;;;;;;;;;;;;;;;13.78;100.00;99168.10;107930;1307;22447;-43
2023/06/15 00:14:17;;;;;;;;;;;;;;;13.76;100.00;99169.80;107941;1307;22432;-45
2023/06/15 00:16:45;;;;;;;;;;;;;;;13.74;100.00;99170.15;107933;1307;22438;-43
2023/06/15 00:19:10;;;;;;;;;;;;;;;13.74;100.00;99166.13;107919;1307;23110;-44
2023/06/15 00:21:41;;;;;;;;;;;;;;;13.74;100.00;99165.61;107931;1307;22451;-45
2023/06/15 00:24:07;;;;;;;;;;;;;;;13.74;100.00;99163.50;107952;1307;22542;-43
2023/06/15 00:26:32;;;;;;;;;;;;;;;13.73;100.00;99162.30;107926;1307;22503;-44
2023/06/15 00:28:57;;;;;;;;;;;;;;;13.73;100.00;99160.75;107927;1307;22435;-44
2023/06/15 00:31:22;;;;;;;;;;;;;;;13.73;100.00;99163.22;107943;1307;22479;-43
2023/06/15 00:33:48;;;;;;;;;;;;;;;13.71;100.00;99158.77;107942;1307;23236;-43
2023/06/15 00:36:13;;;;;;;;;;;;;;;13.68;100.00;99158.45;107922;1307;22478;-44
2023/06/15 00:38:38;;;;;;;;;;;;;;;13.68;100.00;99159.48;107925;1307;22455;-45
2023/06/15 00:41:04;;;;;;;;;;;;;;;13.66;100.00;99158.09;107945;1307;22437;-44
2023/06/15 00:43:29;;;;;;;;;;;;;;;13.66;100.00;99159.85;107906;1305;23629;-44
2023/06/15 00:45:54;;;;;;;;;;;;;;;13.63;100.00;99157.73;107939;1307;22486;-43
2023/06/15 00:48:20;;;;;;;;;;;;;;;13.59;100.00;99156.92;107948;1307;22442;-44
2023/06/15 00:50:45;;;;;;;;;;;;;;;13.56;100.00;99157.46;107945;1307;22436;-44
2023/06/15 00:53:11;;;;;;;;;;;;;;;13.56;100.00;99152.95;107946;1307;22463;-45
2023/06/15 00:55:37;;;;;;;;;;;;;;;13.57;100.00;99153.73;107954;1307;22408;-44
2023/06/15 00:58:03;;;;;;;;;;;;;;;13.59;100.00;99154.35;107945;1307;22512;-44
2023/06/15 01:00:37;;;;;;;;;;;;;;;13.58;100.00;99151.75;107920;1307;23243;-44
2023/06/15 01:03:04;;;;;;;;;;;;;;;13.58;100.00;99148.23;107949;1307;22440;-44
2023/06/15 01:05:30;;;;;;;;;;;;;;;13.57;100.00;99149.52;107920;1307;22413;-44
2023/06/15 01:07:56;;;;;;;;;;;;;;;13.55;100.00;99149.63;107932;1307;22464;-45
2023/06/15 01:10:23;;;;;;;;;;;;;;;13.58;100.00;99146.66;107912;1307;22528;-44
2023/06/15 01:12:53;;;;;;;;;;;;;;;13.59;100.00;99146.52;107939;1307;22541;-44
2023/06/15 01:15:19;;;;;;;;;;;;;;;13.62;100.00;99143.00;107913;1307;22426;-44
2023/06/15 01:17:45;;;;;;;;;;;;;;;13.61;100.00;99140.41;107930;1307;22426;-42
2023/06/15 01:20:24;;;;;;;;;;;;;;;13.61;100.00;99138.50;107925;1307;22436;-41
2023/06/15 01:23:10;;;;;;;;;;;;;;;13.62;100.00;99136.69;107930;1307;22443;-41
2023/06/15 01:25:44;;;;;;;;;;;;;;;13.63;100.00;99134.33;107954;1307;22417;-42
2023/06/15 01:28:10;;;;;;;;;;;;;;;13.64;100.00;99136.89;107931;1307;22422;-41
2023/06/15 01:30:46;;;;;;;;;;;;;;;13.64;100.00;99138.30;107943;1307;23227;-43
2023/06/15 01:33:11;;;;;;;;;;;;;;;13.65;100.00;99138.08;107946;1307;22418;-42
2023/06/15 01:35:37;;;;;;;;;;;;;;;13.63;100.00;99137.13;107945;1307;22422;-43
2023/06/15 01:38:03;;;;;;;;;;;;;;;13.61;100.00;99138.83;107939;1307;22434;-42
2023/06/15 01:40:28;;;;;;;;;;;;;;;13.57;100.00;99138.23;107915;1307;22427;-42
2023/06/15 01:42:55;;;;;;;;;;;;;;;13.55;100.00;99143.16;107912;1301;22442;-43
2023/06/15 01:45:21;;;;;;;;;;;;;;;13.51;100.00;99145.19;107948;1307;22564;-43
2023/06/15 01:47:48;;;;;;;;;;;;;;;13.48;100.00;99148.60;107942;1307;22484;-42
2023/06/15 01:50:13;;;;;;;;;;;;;;;13.47;100.00;99147.76;107936;1307;22419;-43
2023/06/15 01:52:38;;;;;;;;;;;;;;;13.45;100.00;99146.61;107915;1307;23203;-42
2023/06/15 01:55:04;;;;;;;;;;;;;;;13.44;100.00;99145.31;107924;1307;23211;-42
2023/06/15 01:57:34;;;;;;;;;;;;;;;13.43;100.00;99142.90;107948;1307;22472;-42
2023/06/15 01:59:59;;;;;;;;;;;;;;;13.39;100.00;99140.92;107946;1307;22463;-42
2023/06/15 02:02:24;;;;;;;;;;;;;;;13.32;100.00;99136.09;107926;1307;23243;-42
2023/06/15 02:04:50;;;;;;;;;;;;;;;13.30;100.00;99133.22;107938;1307;22447;-42
2023/06/15 02:07:15;;;;;;;;;;;;;;;13.27;100.00;99131.84;107919;1307;23333;-42
2023/06/15 02:09:40;;;;;;;;;;;;;;;13.24;100.00;99130.27;107931;1307;22529;-42
2023/06/15 02:12:06;;;;;;;;;;;;;;;13.24;100.00;99127.48;107916;1307;22443;-43
2023/06/15 02:14:31;;;;;;;;;;;;;;;13.23;100.00;99126.81;107941;1307;22466;-42
2023/06/15 02:16:58;;;;;;;;;;;;;;;13.24;100.00;99129.91;107938;1307;22438;-42
2023/06/15 02:19:23;;;;;;;;;;;;;;;13.23;100.00;99128.02;107953;1307;22431;-42
2023/06/15 02:21:49;;;;;;;;;;;;;;;13.27;100.00;99126.55;107931;1307;23235;-43
2023/06/15 02:24:16;;;;;;;;;;;;;;;13.28;100.00;99126.46;107932;1307;22416;-42
2023/06/15 02:26:41;;;;;;;;;;;;;;;13.23;100.00;99125.75;107945;1307;22422;-44
2023/06/15 02:29:06;;;;;;;;;;;;;;;13.19;99.97;99126.73;107911;1307;22447;-44
2023/06/15 02:31:32;;;;;;;;;;;;;;;13.13;100.00;99125.77;107916;1307;23158;-42
2023/06/15 02:33:57;;;;;;;;;;;;;;;13.10;99.91;99125.13;107927;1307;22405;-43
2023/06/15 02:36:23;;;;;;;;;;;;;;;13.08;100.00;99131.38;107903;1307;22562;-43
2023/06/15 02:38:48;;;;;;;;;;;;;;;13.04;100.00;99135.34;107937;1307;22460;-43
2023/06/15 02:41:14;;;;;;;;;;;;;;;13.03;100.00;99136.60;107927;1307;22413;-44
2023/06/15 02:43:39;;;;;;;;;;;;;;;13.05;100.00;99137.89;107909;1307;22431;-43
2023/06/15 02:46:05;;;;;;;;;;;;;;;13.01;100.00;99134.65;107914;1307;22461;-43
2023/06/15 02:48:30;;;;;;;;;;;;;;;12.98;100.00;99136.42;107926;1307;22435;-43
2023/06/15 02:50:55;;;;;;;;;;;;;;;12.98;100.00;99133.98;107933;1307;22415;-43
2023/06/15 02:53:21;;;;;;;;;;;;;;;12.97;100.00;99141.10;107924;1307;22504;-43
2023/06/15 02:55:46;;;;;;;;;;;;;;;12.90;100.00;99134.69;107929;1307;22452;-43
2023/06/15 02:58:13;;;;;;;;;;;;;;;12.90;100.00;99136.10;107819;1307;144527;-44
2023/06/15 03:00:40;;;;;;;;;;;;;;;12.88;100.00;99135.02;107934;1307;23168;-43
2023/06/15 03:03:05;;;;;;;;;;;;;;;12.90;100.00;99134.00;107936;1307;23197;-43
2023/06/15 03:05:32;;;;;;;;;;;;;;;12.91;100.00;99136.91;107916;1307;22429;-43
2023/06/15 03:07:58;;;;;;;;;;;;;;;12.91;100.00;99138.34;107900;1307;22438;-43
2023/06/15 03:10:23;;;;;;;;;;;;;;;12.93;100.00;99142.63;107904;1307;22487;-44
2023/06/15 03:12:48;;;;;;;;;;;;;;;12.96;100.00;99147.16;107896;1307;22483;-43
2023/06/15 03:15:14;;;;;;;;;;;;;;;12.98;100.00;99149.85;107907;1307;23088;-43
2023/06/15 03:17:40;;;;;;;;;;;;;;;12.99;100.00;99144.84;107900;1307;22419;-43
2023/06/15 03:20:08;;;;;;;;;;;;;;;13.03;100.00;99148.10;107931;1307;22456;-43
2023/06/15 03:25:20;;;;;;;;;;;;;;;13.11;100.00;99148.98;107003;1310;544008;-43
2023/06/15 03:27:49;;;;;;;;;;;;;;;13.09;100.00;99153.65;107387;1314;22457;-42
2023/06/15 03:30:14;;;;;;;;;;;;;;;13.07;100.00;99154.48;107374;1313;22507;-42
2023/06/15 03:32:39;;;;;;;;;;;;;;;13.09;100.00;99155.80;107374;1314;22507;-42
2023/06/15 03:35:06;;;;;;;;;;;;;;;13.12;100.00;99153.33;107388;1305;22994;-42
2023/06/15 03:37:31;;;;;;;;;;;;;;;13.11;100.00;99153.15;107391;1313;22463;-42
2023/06/15 03:39:56;;;;;;;;;;;;;;;13.13;100.00;99153.59;107543;1310;134666;-42
2023/06/15 03:42:21;;;;;;;;;;;;;;;13.14;100.00;99154.36;107755;1309;22475;-42
2023/06/15 03:44:47;;;;;;;;;;;;;;;13.15;100.00;99155.89;106873;1309;22574;-43
2023/06/15 03:47:12;;;;;;;;;;;;;;;13.16;100.00;99155.33;107730;1309;22486;-42
2023/06/15 03:49:37;;;;;;;;;;;;;;;13.14;100.00;99155.42;107713;1309;25188;-42
2023/06/15 03:52:02;;;;;;;;;;;;;;;13.14;100.00;99157.23;107758;1309;22476;-42
2023/06/15 03:54:28;;;;;;;;;;;;;;;13.14;100.00;99159.84;107745;1309;23207;-42
2023/06/15 03:56:53;;;;;;;;;;;;;;;13.16;100.00;99160.08;107734;1309;22529;-42
2023/06/15 03:59:18;;;;;;;;;;;;;;;13.19;100.00;99158.77;107727;1309;25076;-41
2023/06/15 04:01:44;;;;;;;;;;;;;;;13.21;100.00;99161.96;107748;1309;22473;-42
2023/06/15 04:04:10;;;;;;;;;;;;;;;13.22;100.00;99161.06;107728;1309;22463;-42
2023/06/15 04:06:35;;;;;;;;;;;;;;;13.21;100.00;99158.50;107519;1309;22472;-42
2023/06/15 04:09:01;;;;;;;;;;;;;;;13.22;100.00;99154.36;107728;1309;23301;-42
2023/06/15 04:11:26;;;;;;;;;;;;;;;13.23;100.00;99157.66;107745;1309;22468;-43
2023/06/15 04:13:51;;;;;;;;;;;;;;;13.21;100.00;99159.02;107732;1309;23242;-43
2023/06/15 04:16:17;;;;;;;;;;;;;;;13.16;100.00;99159.32;107736;1309;22481;-42
2023/06/15 04:18:42;;;;;;;;;;;;;;;13.14;100.00;99158.60;107762;1309;22458;-42
2023/06/15 04:21:07;;;;;;;;;;;;;;;13.10;100.00;99160.14;107739;1309;22454;-44
2023/06/15 04:23:32;;;;;;;;;;;;;;;13.12;100.00;99162.27;107695;1309;22485;-43
2023/06/15 04:26:00;;;;;;;;;;;;;;;13.17;100.00;99161.08;107756;1309;22460;-43
2023/06/15 04:28:25;;;;;;;;;;;;;;;13.17;100.00;99157.67;107780;1309;23660;-43
2023/06/15 04:30:52;;;;;;;;;;;;;;;13.18;100.00;99159.07;107732;1309;23319;-43
2023/06/15 04:33:19;;;;;;;;;;;;;;;13.15;100.00;99155.73;107785;1292;22872;-42
2023/06/15 04:35:45;;;;;;;;;;;;;;;13.10;100.00;99157.98;107753;1309;22442;-42
2023/06/15 04:38:12;;;;;;;;;;;;;;;13.11;100.00;99157.77;107715;1310;22495;-43
2023/06/15 04:40:37;;;;;;;;;;;;;;;13.14;100.00;99155.94;107742;1309;23150;-42
2023/06/15 04:43:03;;;;;;;;;;;;;;;13.19;100.00;99156.48;107719;1310;22480;-43
2023/06/15 04:45:28;;;;;;;;;;;;;;;13.26;100.00;99157.80;107715;1309;22481;-43
2023/06/15 04:47:53;;;;;;;;;;;;;;;13.29;100.00;99154.94;107713;1309;22457;-42
2023/06/15 04:50:21;;;;;;;;;;;;;;;13.29;100.00;99154.79;107701;1309;22539;-43
2023/06/15 04:52:46;;;;;;;;;;;;;;;13.31;100.00;99159.24;107726;1310;23222;-43
2023/06/15 04:55:11;;;;;;;;;;;;;;;13.30;100.00;99161.05;107723;1309;23169;-43
2023/06/15 04:57:37;;;;;;;;;;;;;;;13.27;100.00;99161.23;107696;1309;24679;-43
2023/06/15 05:00:06;;;;;;;;;;;;;;;13.29;100.00;99160.41;107736;1309;22454;-44
2023/06/15 05:02:31;;;;;;;;;;;;;;;13.31;100.00;99161.19;107737;1309;23089;-44
2023/06/15 05:04:57;;;;;;;;;;;;;;;13.30;100.00;99158.73;107705;1309;22462;-44
2023/06/15 05:07:22;;;;;;;;;;;;;;;13.31;100.00;99159.79;107726;1309;22454;-44
2023/06/15 05:09:47;;;;;;;;;;;;;;;13.28;100.00;99163.13;107735;1309;22870;-45
2023/06/15 05:12:12;;;;;;;;;;;;;;;13.30;100.00;99171.93;107715;1309;23058;-44
2023/06/15 05:14:37;;;;;;;;;;;;;;;13.35;100.00;99168.14;107718;1309;22474;-44
2023/06/15 05:17:03;;;;;;;;;;;;;;;13.40;100.00;99166.70;107718;1309;22477;-42
2023/06/15 05:19:28;;;;;;;;;;;;;;;13.43;100.00;99169.52;107687;1309;22473;-42
2023/06/15 05:21:57;;;;;;;;;;;;;;;13.44;100.00;99168.71;107724;1309;23224;-42
2023/06/15 05:24:22;;;;;;;;;;;;;;;13.50;100.00;99172.58;107736;1309;22481;-42
2023/06/15 05:26:47;;;;;;;;;;;;;;;13.55;100.00;99172.20;107514;1309;22465;-44
2023/06/15 05:29:13;;;;;;;;;;;;;;;13.59;100.00;99171.20;107692;1309;22527;-43
2023/06/15 05:31:38;;;;;;;;;;;;;;;13.64;100.00;99173.72;107719;1309;22462;-43
2023/06/15 05:34:03;;;;;;;;;;;;;;;13.66;100.00;99173.36;107703;1310;22450;-43
2023/06/15 05:36:30;;;;;;;;;;;;;;;13.62;100.00;99175.23;107723;1309;22486;-44
2023/06/15 05:38:56;;;;;;;;;;;;;;;13.57;100.00;99175.38;107740;1309;23144;-43
2023/06/15 05:41:21;;;;;;;;;;;;;;;13.56;100.00;99176.70;107735;1310;22466;-43
2023/06/15 05:43:46;;;;;;;;;;;;;;;13.57;100.00;99179.65;107723;1309;22635;-44
2023/06/15 05:46:11;;;;;;;;;;;;;;;13.58;100.00;99183.62;107691;1309;22469;-43
2023/06/15 05:48:37;;;;;;;;;;;;;;;13.60;100.00;99185.26;107723;1309;22568;-45
2023/06/15 05:51:02;;;;;;;;;;;;;;;13.63;100.00;99184.86;107703;1310;23335;-43
2023/06/15 05:53:27;;;;;;;;;;;;;;;13.69;100.00;99190.98;107703;1309;23153;-43
2023/06/15 05:55:52;;;;;;;;;;;;;;;13.70;100.00;99189.83;107734;1309;23198;-46
2023/06/15 05:58:18;;;;;;;;;;;;;;;13.74;100.00;99188.30;107491;1310;23125;-43
2023/06/15 06:00:43;;;;;;;;;;;;;;;13.80;100.00;99190.58;107717;1310;22510;-43
2023/06/15 06:03:08;;;;;;;;;;;;;;;13.87;100.00;99192.89;107716;1309;22478;-44
2023/06/15 06:05:33;;;;;;;;;;;;;;;13.95;100.00;99195.30;107709;1309;23130;-44
2023/06/15 06:07:58;;;;;;;;;;;;;;;14.07;100.00;99195.67;107741;1309;23248;-43
2023/06/15 06:10:24;;;;;;;;;;;;;;;14.21;100.00;99195.92;107707;1310;22487;-44
2023/06/15 06:12:49;;;;;;;;;;;;;;;14.33;100.00;99199.47;107727;1309;22474;-43
2023/06/15 06:15:14;;;;;;;;;;;;;;;14.41;99.67;99204.38;107719;1309;22460;-44
2023/06/15 06:17:40;;;;;;;;;;;;;;;14.33;99.05;99204.05;107703;1310;22523;-43
2023/06/15 06:20:05;;;;;;;;;;;;;;;14.35;99.05;99201.45;107690;1309;22463;-43
2023/06/15 06:22:30;;;;;;;;;;;;;;;14.39;98.22;99205.42;107719;1309;23202;-44
2023/06/15 06:24:55;;;;;;;;;;;;;;;14.37;98.02;99207.67;107698;1309;22451;-43
2023/06/15 06:27:21;;;;;;;;;;;;;;;14.34;97.94;99207.71;107721;1309;22608;-43
2023/06/15 06:29:46;;;;;;;;;;;;;;;14.33;97.71;99209.39;107686;1309;22453;-43
2023/06/15 06:32:11;;;;;;;;;;;;;;;14.32;97.49;99207.87;107724;1310;22464;-44
2023/06/15 06:34:36;;;;;;;;;;;;;;;14.34;97.44;99209.83;107724;1310;22448;-43
2023/06/15 06:37:05;;;;;;;;;;;;;;;14.31;97.61;99210.52;107712;1310;23174;-43
2023/06/15 06:39:30;;;;;;;;;;;;;;;14.30;97.95;99212.92;107700;1309;23100;-44
2023/06/15 06:41:55;;;;;;;;;;;;;;;14.38;98.48;99213.90;107702;1309;22466;-44
2023/06/15 06:44:21;;;;;;;;;;;;;;;14.54;98.71;99213.65;107684;1309;22530;-44
2023/06/15 06:46:46;;;;;;;;;;;;;;;14.70;98.35;99212.85;107703;1309;22436;-43
2023/06/15 06:49:11;;;;;;;;;;;;;;;14.86;97.86;99214.15;107719;1310;22474;-44
2023/06/15 06:51:38;;;;;;;;;;;;;;;14.99;96.63;99214.24;107718;1309;23276;-44
2023/06/15 06:54:03;;;;;;;;;;;;;;;15.09;95.89;99212.64;107722;1310;23317;-45
2023/06/15 06:56:28;;;;;;;;;;;;;;;15.20;95.06;99212.29;107683;1309;22577;-44
2023/06/15 06:58:53;;;;;;;;;;;;;;;15.32;95.06;99208.91;107717;1310;22462;-44
2023/06/15 07:01:18;;;;;;;;;;;;;;;15.43;93.98;99210.07;107688;1309;22454;-44
2023/06/15 07:03:43;;;;;;;;;;;;;;;15.49;93.31;99212.05;107598;1309;22617;-43
2023/06/15 07:06:09;;;;;;;;;;;;;;;15.50;91.31;99211.59;106566;1310;22542;-43
2023/06/15 07:08:34;;;;;;;;;;;;;;;15.56;92.49;99208.20;106598;1310;22517;-42
2023/06/15 07:10:59;;;;;;;;;;;;;;;15.58;92.03;99208.20;107184;1309;25343;-41
2023/06/15 07:13:24;;;;;;;;;;;;;;;15.53;90.50;99208.77;106823;1309;22566;-43
2023/06/15 07:15:53;;;;;;;;;;;;;;;15.56;90.89;99208.84;107695;1309;22496;-44
2023/06/15 07:18:19;;;;;;;;;;;;;;;15.57;91.11;99210.73;107728;1309;22570;-45
2023/06/15 07:20:44;;;;;;;;;;;;;;;15.50;87.72;99207.73;107698;1310;22454;-42
2023/06/15 07:23:09;;;;;;;;;;;;;;;15.53;88.87;99208.23;107682;1310;23315;-43
2023/06/15 07:25:34;;;;;;;;;;;;;;;15.56;89.62;99210.08;107736;1310;22565;-43
2023/06/15 07:28:00;;;;;;;;;;;;;;;15.59;88.79;99208.80;107714;1310;22585;-42
2023/06/15 07:30:25;;;;;;;;;;;;;;;15.61;88.69;99208.31;107893;1308;22436;-42
2023/06/15 07:32:50;;;;;;;;;;;;;;;15.63;88.69;99208.15;107922;1308;22954;-42
2023/06/15 07:35:16;;;;;;;;;;;;;;;15.64;88.02;99203.67;107904;1308;22437;-43
2023/06/15 07:37:41;;;;;;;;;;;;;;;15.66;88.62;99201.74;107909;1308;22448;-42
2023/06/15 07:40:06;;;;;;;;;;;;;;;15.72;89.48;99201.11;107904;1308;22332;-43
2023/06/15 07:42:32;;;;;;;;;;;;;;;15.76;89.41;99196.20;107912;1308;22470;-42
2023/06/15 07:44:57;;;;;;;;;;;;;;;15.80;88.69;99200.90;107909;1308;22487;-42
2023/06/15 07:47:22;;;;;;;;;;;;;;;15.76;86.89;99200.15;107919;1308;23373;-43
2023/06/15 07:49:47;;;;;;;;;;;;;;;15.80;86.98;99200.73;107895;1308;22453;-42
2023/06/15 07:52:13;;;;;;;;;;;;;;;15.82;86.72;99198.63;107688;1295;22426;-43
2023/06/15 07:54:38;;;;;;;;;;;;;;;15.87;86.11;99205.11;107895;1308;22541;-42
2023/06/15 07:57:03;;;;;;;;;;;;;;;15.95;85.81;99205.88;107937;1308;22471;-43
2023/06/15 07:59:28;;;;;;;;;;;;;;;15.93;82.84;99200.17;107921;1295;22622;-42
2023/06/15 08:01:54;;;;;;;;;;;;;;;16.00;83.91;99198.41;107894;1308;22520;-43
2023/06/15 08:04:19;;;;;;;;;;;;;;;16.07;83.68;99202.42;107907;1308;23270;-43
2023/06/15 08:06:45;;;;;;;;;;;;;;;16.13;82.53;99202.33;107894;1308;22463;-43
2023/06/15 08:09:11;;;;;;;;;;;;;;;16.21;81.96;99199.98;107915;1308;22481;-45
2023/06/15 08:11:36;;;;;;;;;;;;;;;16.23;79.63;99200.63;107907;1308;22633;-44
2023/06/15 08:14:02;;;;;;;;;;;;;;;16.32;80.08;99203.98;107914;1308;22439;-43
2023/06/15 08:16:27;;;;;;;;;;;;;;;16.45;79.95;99206.13;107907;1308;22430;-44
2023/06/15 08:18:53;;;;;;;;;;;;;;;16.62;80.83;99205.30;107914;1308;22448;-44
2023/06/15 08:21:18;;;;;;;;;;;;;;;16.77;80.81;99200.90;107904;1308;23364;-43
2023/06/15 08:23:43;;;;;;;;;;;;;;;16.85;80.38;99202.71;107910;1308;22559;-43
2023/06/15 08:26:09;;;;;;;;;;;;;;;16.87;80.24;99200.25;107893;1308;23258;-44
2023/06/15 08:28:34;;;;;;;;;;;;;;;17.00;80.70;99202.52;107913;1308;22485;-44
2023/06/15 08:31:00;;;;;;;;;;;;;;;17.18;79.02;99199.60;107884;1308;23532;-43
2023/06/15 08:33:25;;;;;;;;;;;;;;;17.36;80.00;99202.58;107874;1308;22503;-44
2023/06/15 08:35:50;;;;;;;;;;;;;;;17.56;78.93;99204.79;107922;1308;22430;-44
2023/06/15 08:38:15;;;;;;;;;;;;;;;17.80;77.61;99204.08;107890;1308;22858;-44
2023/06/15 08:40:40;;;;;;;;;;;;;;;18.04;76.55;99204.78;107890;1308;22543;-43
2023/06/15 08:43:06;;;;;;;;;;;;;;;18.26;75.06;99200.14;107904;1308;23194;-43
2023/06/15 08:45:36;;;;;;;;;;;;;;;18.54;73.88;99198.14;107887;1308;23512;-43
2023/06/15 08:48:04;;;;;;;;;;;;;;;18.74;73.38;99193.66;107934;1308;22522;-43
2023/06/15 08:50:29;;;;;;;;;;;;;;;18.75;70.88;99194.31;107900;1308;22468;-43
2023/06/15 08:52:55;;;;;;;;;;;;;;;18.86;68.98;99194.44;107906;1308;22479;-43
2023/06/15 08:55:22;;;;;;;;;;;;;;;19.12;69.39;99198.28;107900;1308;22450;-43
2023/06/15 08:57:47;;;;;;;;;;;;;;;19.24;70.87;99192.52;107913;1308;22480;-43
2023/06/15 09:00:13;;;;;;;;;;;;;;;19.12;70.62;99193.98;107910;1308;22534;-43
2023/06/15 09:02:43;;;;;;;;;;;;;;;19.05;70.56;99196.09;107916;1308;22442;-43
2023/06/15 09:05:08;;;;;;;;;;;;;;;18.89;69.90;99198.61;107893;1308;22450;-42
2023/06/15 09:07:34;;;;;;;;;;;;;;;18.75;70.64;99197.86;107905;1308;22564;-43
2023/06/15 09:10:16;;;;;;;;;;;;;;;18.71;70.27;99196.30;107885;1308;22429;-43
2023/06/15 09:12:45;;;;;;;;;;;;;;;18.70;70.49;99195.98;107922;1308;22561;-43
2023/06/15 09:15:13;;;;;;;;;;;;;;;18.80;71.94;99196.23;107891;1308;22433;-43
2023/06/15 09:17:40;;;;;;;;;;;;;;;18.77;69.48;99200.83;107911;1308;23228;-43
2023/06/15 09:20:05;;;;;;;;;;;;;;;18.75;70.27;99200.55;107905;1308;23405;-44
2023/06/15 09:22:31;;;;;;;;;;;;;;;18.73;70.99;99201.06;107923;1308;23289;-43
2023/06/15 09:24:56;;;;;;;;;;;;;;;18.70;69.40;99197.95;107927;1308;22450;-43
2023/06/15 09:27:21;;;;;;;;;;;;;;;18.75;69.32;99195.88;107896;1308;23289;-42
2023/06/15 09:30:03;;;;;;;;;;;;;;;19.01;70.88;99196.27;107466;1301;23550;-43
2023/06/15 09:32:29;;;;;;;;;;;;;;;19.63;70.79;99192.11;106991;1301;22561;-40
2023/06/15 09:35:01;;;;;;;;;;;;;;;20.19;65.57;99194.97;106822;1308;22558;-41
2023/06/15 09:37:27;;;;;;;;;;;;;;;20.74;61.21;99196.38;107081;1302;22504;-42
2023/06/15 09:39:53;;;;;;;;;;;;;;;21.24;57.40;99195.64;107904;1302;22481;-43
2023/06/15 09:42:24;;;;;;;;;;;;;;;21.96;58.10;99191.48;107061;1308;22545;-42
2023/06/15 09:44:53;;;;;;;;;;;;;;;22.78;53.02;99188.38;107276;1302;22561;-43
2023/06/15 09:47:18;;;;;;;;;;;;;;;23.47;55.20;99187.62;107824;1301;22513;-43
2023/06/15 09:49:46;;;;;;;;;;;;;;;24.21;50.78;99185.86;107514;1301;22522;-42
2023/06/15 09:52:12;;;;;;;;;;;;;;;24.61;49.39;99182.98;107804;1308;22458;-42
2023/06/15 09:54:38;;;;;;;;;;;;;;;24.51;52.38;99183.36;107470;1308;22525;-42
2023/06/15 09:57:04;;;;;;;;;;;;;;;24.08;54.21;99186.27;107851;1300;22484;-42
2023/06/15 09:59:29;;;;;;;;;;;;;;;23.46;49.99;99186.20;107827;1308;22474;-41
2023/06/15 10:01:55;;;;;;;;;;;;;;;23.04;50.03;99185.58;107574;1308;23364;-41
2023/06/15 10:04:24;;;;;;;;;;;;;;;22.76;50.85;99185.91;107795;1305;23269;-42
2023/06/15 10:06:51;;;;;;;;;;;;;;;22.41;53.65;99179.83;107854;1308;22468;-42
2023/06/15 10:09:18;;;;;;;;;;;;;;;21.82;53.05;99185.46;107823;1308;23080;-43
2023/06/15 10:11:45;;;;;;;;;;;;;;;21.51;53.34;99185.82;107824;1308;22482;-44
2023/06/15 10:14:17;;;;;;;;;;;;;;;21.26;53.19;99187.26;107823;1307;22525;-44
2023/06/15 10:16:48;;;;;;;;;;;;;;;20.93;54.00;99187.52;107919;1301;22479;-44
2023/06/15 10:19:15;;;;;;;;;;;;;;;20.73;54.61;99188.30;107914;1307;22594;-44
2023/06/15 10:21:42;;;;;;;;;;;;;;;20.59;54.96;99187.33;107863;1302;22470;-43
2023/06/15 10:24:12;;;;;;;;;;;;;;;20.55;56.11;99185.78;107935;1308;22482;-44
2023/06/15 10:26:38;;;;;;;;;;;;;;;20.80;57.37;99186.73;107880;1302;22475;-44
2023/06/15 10:29:11;;;;;;;;;;;;;;;21.45;56.87;99185.20;107688;1308;23253;-44
2023/06/15 10:31:36;;;;;;;;;;;;;;;21.83;53.60;99175.54;107935;1307;22447;-43
2023/06/15 10:34:17;;;;;;;;;;;;;;;22.01;52.26;99175.15;107836;1301;22456;-43
2023/06/15 10:36:55;;;;;;;;;;;;;;;22.05;52.23;99175.90;107897;1302;22488;-42
2023/06/15 10:39:20;;;;;;;;;;;;;;;22.16;52.82;99176.91;107912;1307;23059;-42
2023/06/15 10:41:45;;;;;;;;;;;;;;;22.10;52.28;99181.11;107850;1307;22523;-42
2023/06/15 10:44:13;;;;;;;;;;;;;;;21.93;53.49;99185.09;107927;1302;22492;-41
2023/06/15 10:46:38;;;;;;;;;;;;;;;21.61;53.77;99192.05;107882;1307;22520;-42
2023/06/15 10:49:07;;;;;;;;;;;;;;;21.28;54.30;99189.37;107880;1308;22495;-41
2023/06/15 10:51:38;;;;;;;;;;;;;;;20.94;54.90;99185.98;107927;1302;22449;-42
2023/06/15 10:54:04;;;;;;;;;;;;;;;20.75;55.94;99186.30;107832;1307;22482;-43
2023/06/15 10:56:30;;;;;;;;;;;;;;;20.69;57.46;99188.30;107920;1301;22459;-42
2023/06/15 10:59:04;;;;;;;;;;;;;;;20.60;58.06;99183.51;107900;1307;22446;-43
2023/06/15 11:01:33;;;;;;;;;;;;;;;20.47;58.97;99183.73;107846;1308;22446;-44
2023/06/15 11:04:18;;;;;;;;;;;;;;;20.36;59.54;99184.73;107931;1307;23272;-43
2023/06/15 11:06:54;;;;;;;;;;;;;;;20.25;60.29;99188.16;107902;1307;22505;-43
2023/06/15 11:09:20;;;;;;;;;;;;;;;20.15;60.21;99187.88;107879;1305;22503;-43
2023/06/15 11:11:46;;;;;;;;;;;;;;;20.04;60.47;99188.90;107933;1302;22512;-43
2023/06/15 11:14:23;;;;;;;;;;;;;;;20.11;59.16;99189.65;107871;1307;22459;-42
2023/06/15 11:17:05;;;;;;;;;;;;;;;20.08;59.24;99186.90;107904;1308;23260;-43
2023/06/15 11:19:30;;;;;;;;;;;;;;;20.09;59.09;99187.38;107956;1307;23198;-43
2023/06/15 11:21:57;;;;;;;;;;;;;;;20.04;57.73;99186.05;107851;1307;22484;-43
2023/06/15 11:24:24;;;;;;;;;;;;;;;20.00;58.33;99183.06;107931;1308;22480;-43
2023/06/15 11:26:50;;;;;;;;;;;;;;;19.90;57.97;99185.94;107904;1301;23168;-45
2023/06/15 11:29:22;;;;;;;;;;;;;;;19.65;58.47;99184.98;107871;1307;23407;-43
2023/06/15 11:31:47;;;;;;;;;;;;;;;19.67;59.50;99183.11;107953;1307;23272;-43
2023/06/15 11:34:13;;;;;;;;;;;;;;;19.61;60.24;99185.49;107962;1307;22463;-43
2023/06/15 11:36:38;;;;;;;;;;;;;;;19.55;61.55;99187.53;107884;1301;22492;-43
2023/06/15 11:39:07;;;;;;;;;;;;;;;19.49;61.55;99183.45;107830;1299;23347;-43
2023/06/15 11:41:32;;;;;;;;;;;;;;;19.35;62.58;99184.08;107938;1307;22462;-43
2023/06/15 11:43:57;;;;;;;;;;;;;;;19.21;63.99;99183.73;107804;1307;22491;-43
2023/06/15 11:46:23;;;;;;;;;;;;;;;18.97;65.67;99184.23;107933;1308;23260;-42
2023/06/15 11:48:49;;;;;;;;;;;;;;;18.89;65.95;99187.04;107888;1307;23271;-42
2023/06/15 11:51:15;;;;;;;;;;;;;;;18.78;66.32;99188.34;107876;1308;22465;-42
2023/06/15 11:53:41;;;;;;;;;;;;;;;18.74;66.47;99186.39;107925;1307;24108;-43
2023/06/15 11:56:07;;;;;;;;;;;;;;;18.71;67.07;99182.27;107863;1302;22485;-42
2023/06/15 11:58:33;;;;;;;;;;;;;;;18.80;67.40;99180.21;107925;1307;22501;-42
2023/06/15 12:00:58;;;;;;;;;;;;;;;18.94;66.94;99183.77;107805;1308;23258;-42
2023/06/15 12:03:24;;;;;;;;;;;;;;;19.05;66.90;99177.58;107899;1305;23123;-42
2023/06/15 12:05:59;;;;;;;;;;;;;;;19.19;66.61;99178.77;107195;1302;22510;-43
2023/06/15 12:08:26;;;;;;;;;;;;;;;19.18;65.94;99174.23;107943;1308;22453;-42
2023/06/15 12:10:52;;;;;;;;;;;;;;;19.33;65.47;99169.98;107865;1301;23289;-42
2023/06/15 12:13:17;;;;;;;;;;;;;;;19.54;65.38;99167.48;107896;1304;23229;-43
2023/06/15 12:15:46;;;;;;;;;;;;;;;19.66;64.03;99161.90;107925;1304;23270;-43
2023/06/15 12:18:11;;;;;;;;;;;;;;;19.88;63.64;99164.64;107849;1302;22462;-43
2023/06/15 12:20:37;;;;;;;;;;;;;;;20.00;63.10;99167.27;107918;1308;22483;-43
2023/06/15 12:23:04;;;;;;;;;;;;;;;20.11;63.23;99163.17;107909;1302;22493;-43
2023/06/15 12:25:43;;;;;;;;;;;;;;;20.04;62.54;99158.11;107852;1301;22477;-44
2023/06/15 12:28:18;;;;;;;;;;;;;;;20.08;62.15;99159.50;107829;1302;22492;-42
2023/06/15 12:30:47;;;;;;;;;;;;;;;20.11;62.07;99160.67;107794;1305;22526;-43
2023/06/15 12:33:25;;;;;;;;;;;;;;;20.09;61.37;99157.27;107374;1302;22563;-42